Time;durP1;ratioP1;P1;durP2;ratioP2;P2;SDS_P1;SDS_P2;PMS_P1;PMS_P2;Temp;Humidity;BMP_temperature;BMP_pressure;BME280_temperature;BME280_humidity;BME280_pressure;Samples;Min_cycle;Max_cycle;Signal;HPM_P1;HPM_P2
2022/07/13 00:02:25;;;;;;;0.10;0.10;;;;;;;21.81;52.87;101795.81;5120083;28;20529;-37
2022/07/13 00:04:50;;;;;;;0.10;0.10;;;;;;;21.83;52.83;101793.56;5116906;28;20482;-38
2022/07/13 00:07:16;;;;;;;0.10;0.10;;;;;;;21.81;52.88;101795.81;5115491;28;20040;-37
2022/07/13 00:09:42;;;;;;;0.10;0.10;;;;;;;21.84;52.79;101797.16;5119259;28;20085;-37
2022/07/13 00:12:07;;;;;;;0.10;0.10;;;;;;;21.83;52.78;101788.03;5117513;28;20501;-38
2022/07/13 00:14:33;;;;;;;0.10;0.10;;;;;;;21.85;52.85;101790.50;5101262;28;20047;-39
2022/07/13 00:16:59;;;;;;;0.10;0.10;;;;;;;21.84;52.79;101789.69;5095822;28;20046;-36
2022/07/13 00:19:25;;;;;;;0.10;0.10;;;;;;;21.84;52.77;101777.75;5119724;28;20039;-37
2022/07/13 00:21:51;;;;;;;0.10;0.10;;;;;;;21.82;52.88;101788.31;5119340;28;20047;-38
2022/07/13 00:24:16;;;;;;;0.10;0.10;;;;;;;21.83;52.83;101793.56;5117437;28;20047;-38
2022/07/13 00:26:42;;;;;;;0.10;0.10;;;;;;;21.85;52.82;101787.72;5116428;28;20039;-38
2022/07/13 00:29:08;;;;;;;0.10;0.10;;;;;;;21.83;52.87;101785.25;5120802;28;20398;-37
2022/07/13 00:31:34;;;;;;;0.10;0.10;;;;;;;21.83;52.83;101787.19;5117740;28;20056;-38
2022/07/13 00:33:59;;;;;;;0.10;0.10;;;;;;;21.82;52.82;101780.00;5120534;28;20150;-36
2022/07/13 00:36:25;;;;;;;0.10;0.10;;;;;;;21.83;52.76;101785.25;5116862;28;20053;-37
2022/07/13 00:38:51;;;;;;;0.10;0.10;;;;;;;21.82;52.86;101782.78;5117378;28;20047;-36
2022/07/13 00:41:16;;;;;;;0.10;0.10;;;;;;;21.84;52.86;101784.13;5114856;28;20054;-38
2022/07/13 00:43:42;;;;;;;0.10;0.10;;;;;;;21.83;52.77;101782.47;5117679;28;20043;-37
2022/07/13 00:46:09;;;;;;;0.10;0.10;;;;;;;21.82;52.94;101774.44;5118100;28;20723;-36
2022/07/13 00:48:36;;;;;;;0.10;0.10;;;;;;;21.84;52.78;101775.81;5118699;28;20450;-37
2022/07/13 00:51:02;;;;;;;0.10;0.10;;;;;;;21.83;52.88;101765.84;5112842;28;20074;-38
2022/07/13 00:53:28;;;;;;;0.10;0.10;;;;;;;21.82;52.89;101760.59;5123499;28;20073;-36
2022/07/13 00:55:53;;;;;;;0.10;0.10;;;;;;;21.83;52.76;101765.84;5117388;28;20047;-36
2022/07/13 00:58:19;;;;;;;0.10;0.10;;;;;;;21.83;52.85;101760.28;5112166;28;20400;-37
2022/07/13 01:00:45;;;;;;;0.10;0.10;;;;;;;21.84;52.82;101750.03;5121589;28;20092;-38
2022/07/13 01:03:11;;;;;;;0.10;0.10;;;;;;;21.84;52.79;101750.03;5095069;28;20047;-37
2022/07/13 01:05:36;;;;;;;0.10;0.10;;;;;;;21.84;52.79;101736.16;5120301;28;20035;-37
2022/07/13 01:08:04;;;;;;;0.10;0.10;;;;;;;21.84;52.96;101744.47;5115509;27;20071;-37
2022/07/13 01:10:30;;;;;;;0.10;0.10;;;;;;;21.82;52.85;101752.25;5095751;28;20134;-37
2022/07/13 01:12:55;;;;;;;0.10;0.10;;;;;;;21.83;52.88;101749.19;5118338;28;20051;-37
2022/07/13 01:15:22;;;;;;;0.10;0.10;;;;;;;21.84;52.93;101755.56;5116452;28;20085;-37
2022/07/13 01:17:47;;;;;;;0.10;0.10;;;;;;;21.84;52.83;101750.03;5094900;28;20046;-39
2022/07/13 01:20:14;;;;;;;0.10;0.10;;;;;;;21.85;52.84;101751.69;5120897;28;20047;-37
2022/07/13 01:22:44;;;;;;;0.10;0.10;;;;;;;21.84;52.89;101744.47;5095897;28;20444;-39
2022/07/13 01:25:10;;;;;;;0.10;0.10;;;;;;;21.83;52.96;101757.53;5098852;28;20075;-37
2022/07/13 01:27:36;;;;;;;0.10;0.10;;;;;;;21.82;52.93;101760.59;5093438;28;20044;-37
2022/07/13 01:30:04;;;;;;;0.10;0.10;;;;;;;21.82;52.83;101764.19;5101014;28;20063;-37
2022/07/13 01:32:29;;;;;;;0.10;0.10;;;;;;;21.83;52.91;101760.28;5120131;28;20071;-39
2022/07/13 01:34:55;;;;;;;0.20;0.20;;;;;;;21.83;52.87;101749.19;5116215;28;20058;-37
2022/07/13 01:37:21;;;;;;;0.10;0.10;;;;;;;21.84;52.82;101736.16;5120073;28;20049;-36
2022/07/13 01:39:46;;;;;;;0.10;0.10;;;;;;;21.83;52.76;101731.75;5118477;28;20478;-37
2022/07/13 01:42:12;;;;;;;0.10;0.10;;;;;;;21.84;53.02;101709.25;5114577;28;20043;-38
2022/07/13 01:44:37;;;;;;;0.10;0.10;;;;;;;21.84;52.87;101711.22;5116282;28;20047;-37
2022/07/13 01:47:08;;;;;;;0.10;0.10;;;;;;;21.83;52.86;101709.56;5112077;28;20044;-37
2022/07/13 01:49:34;;;;;;;0.10;0.10;;;;;;;21.85;52.74;101718.41;5097086;28;20073;-38
2022/07/13 01:51:59;;;;;;;0.10;0.10;;;;;;;21.84;52.78;101714.81;5116800;28;20096;-37
2022/07/13 01:54:25;;;;;;;0.10;0.10;;;;;;;21.84;52.79;101719.53;5114606;28;20047;-37
2022/07/13 01:56:51;;;;;;;0.10;0.10;;;;;;;21.84;52.79;101716.75;5113812;28;20723;-37
2022/07/13 01:59:16;;;;;;;0.15;0.15;;;;;;;21.81;52.93;101712.63;5113754;28;20410;-38
2022/07/13 02:01:42;;;;;;;0.10;0.10;;;;;;;21.84;52.86;101706.50;5115442;28;20039;-38
2022/07/13 02:04:08;;;;;;;0.10;0.10;;;;;;;21.83;52.90;101710.38;5098724;28;20066;-37
2022/07/13 02:06:34;;;;;;;0.10;0.10;;;;;;;21.83;52.91;101701.25;5116000;28;20047;-38
2022/07/13 02:08:59;;;;;;;0.10;0.10;;;;;;;21.82;52.86;101692.09;5117329;28;20057;-39
2022/07/13 02:11:25;;;;;;;0.10;0.10;;;;;;;21.82;52.82;101696.81;5115452;28;20050;-38
2022/07/13 02:13:50;;;;;;;0.10;0.10;;;;;;;21.84;52.87;101700.13;5119739;28;20052;-38
2022/07/13 02:16:17;;;;;;;0.10;0.10;;;;;;;21.85;52.81;101696.22;5114749;28;20409;-38
2022/07/13 02:18:43;;;;;;;0.20;0.20;;;;;;;21.86;52.81;101701.50;5121648;28;20053;-38
2022/07/13 02:21:09;;;;;;;0.20;0.20;;;;;;;21.84;52.83;101697.34;5117734;27;20066;-38
2022/07/13 02:23:34;;;;;;;0.10;0.10;;;;;;;21.85;52.76;101693.44;5115213;28;20043;-37
2022/07/13 02:26:00;;;;;;;0.10;0.10;;;;;;;21.85;52.89;101694.31;5099111;28;20035;-38
2022/07/13 02:28:26;;;;;;;0.10;0.10;;;;;;;21.84;52.87;101691.81;5118687;28;20435;-38
2022/07/13 02:30:51;;;;;;;0.10;0.10;;;;;;;21.83;52.79;101681.81;5116105;28;20047;-38
2022/07/13 02:33:17;;;;;;;0.10;0.10;;;;;;;21.86;52.79;101678.50;5116158;28;20035;-38
2022/07/13 02:35:43;;;;;;;0.10;0.10;;;;;;;21.85;52.78;101669.34;5095109;28;20466;-37
2022/07/13 02:38:09;;;;;;;0.10;0.10;;;;;;;21.83;52.79;101668.78;5112690;28;20079;-38
2022/07/13 02:40:35;;;;;;;0.10;0.10;;;;;;;21.84;52.83;101676.00;5114937;28;20499;-39
2022/07/13 02:43:00;;;;;;;0.10;0.10;;;;;;;21.83;52.88;101671.56;5116103;28;20461;-39
2022/07/13 02:45:26;;;;;;;0.10;0.10;;;;;;;21.84;52.82;101667.66;5116913;28;20039;-38
2022/07/13 02:47:51;;;;;;;0.10;0.10;;;;;;;21.83;52.78;101671.56;5101419;28;20381;-39
2022/07/13 02:50:17;;;;;;;0.10;0.10;;;;;;;21.84;53.01;101667.66;5116551;28;20043;-38
2022/07/13 02:52:44;;;;;;;0.10;0.10;;;;;;;21.85;52.84;101662.94;5100378;28;20464;-37
2022/07/13 02:55:10;;;;;;;0.10;0.10;;;;;;;21.85;52.79;101657.41;5114031;28;20079;-39
2022/07/13 02:57:35;;;;;;;0.10;0.10;;;;;;;21.86;52.80;101665.47;5085471;28;20054;-37
2022/07/13 03:00:02;;;;;;;0.10;0.10;;;;;;;21.83;52.90;101660.47;5098836;28;20043;-38
2022/07/13 03:02:28;;;;;;;0.15;0.15;;;;;;;21.82;52.86;101658.00;5099848;28;20039;-38
2022/07/13 03:04:53;;;;;;;0.20;0.20;;;;;;;21.82;52.92;101658.00;5114690;28;20763;-37
2022/07/13 03:07:19;;;;;;;0.10;0.10;;;;;;;21.84;52.94;101658.53;5111768;28;20478;-37
2022/07/13 03:09:45;;;;;;;0.10;0.10;;;;;;;21.84;52.77;101659.34;5112268;28;20047;-38
2022/07/13 03:12:11;;;;;;;0.10;0.10;;;;;;;21.84;52.94;101662.13;5120427;28;20072;-38
2022/07/13 03:14:37;;;;;;;0.10;0.10;;;;;;;21.82;52.88;101666.31;5117047;28;20625;-37
2022/07/13 03:17:02;;;;;;;0.20;0.20;;;;;;;21.84;52.87;101662.13;5110555;28;20036;-38
2022/07/13 03:19:29;;;;;;;0.10;0.10;;;;;;;21.84;52.85;101662.13;5113195;28;20067;-38
2022/07/13 03:21:55;;;;;;;0.10;0.10;;;;;;;21.82;52.95;101656.03;5112278;28;20489;-38
2022/07/13 03:24:20;;;;;;;0.10;0.10;;;;;;;21.82;52.88;101656.03;5115959;28;20040;-38
2022/07/13 03:26:46;;;;;;;0.10;0.10;;;;;;;21.83;52.85;101662.41;5108169;28;20138;-38
2022/07/13 03:29:12;;;;;;;0.10;0.10;;;;;;;21.84;53.00;101658.53;5115051;28;20049;-38
2022/07/13 03:31:37;;;;;;;0.10;0.10;;;;;;;21.84;52.64;101664.91;5113798;28;20062;-38
2022/07/13 03:34:03;;;;;;;0.10;0.10;;;;;;;21.85;52.75;101665.72;5118781;28;20383;-38
2022/07/13 03:36:30;;;;;;;0.10;0.10;;;;;;;21.84;52.85;101656.59;5115324;28;20070;-38
2022/07/13 03:38:56;;;;;;;0.10;0.10;;;;;;;21.85;52.93;101657.41;5121767;28;20073;-38
2022/07/13 03:41:22;;;;;;;0.15;0.15;;;;;;;21.83;52.92;101654.94;5122649;27;20043;-38
2022/07/13 03:43:47;;;;;;;0.10;0.10;;;;;;;21.84;52.89;101651.03;5118272;28;20046;-36
2022/07/13 03:46:13;;;;;;;0.10;0.10;;;;;;;21.84;52.82;101648.25;5114479;28;20040;-37
2022/07/13 03:48:39;;;;;;;0.10;0.10;;;;;;;21.84;52.89;101644.66;5120068;28;20145;-38
2022/07/13 03:51:05;;;;;;;0.10;0.10;;;;;;;21.85;52.77;101644.41;5116892;28;20094;-38
2022/07/13 03:53:30;;;;;;;0.10;0.10;;;;;;;21.86;52.75;101648.00;5117466;28;20044;-38
2022/07/13 03:55:56;;;;;;;0.10;0.10;;;;;;;21.84;52.87;101644.66;5124717;28;20480;-37
2022/07/13 03:58:22;;;;;;;0.10;0.10;;;;;;;21.83;52.92;101641.06;5124634;28;20059;-37
2022/07/13 04:00:47;;;;;;;0.10;0.10;;;;;;;21.84;52.93;101650.22;5117721;28;20066;-39
2022/07/13 04:03:13;;;;;;;0.10;0.10;;;;;;;21.83;52.90;101652.16;5120509;28;20043;-37
2022/07/13 04:05:39;;;;;;;0.20;0.20;;;;;;;21.84;52.87;101658.53;5118239;28;20138;-37
2022/07/13 04:08:04;;;;;;;0.10;0.10;;;;;;;21.84;52.94;101659.34;5112507;28;20049;-36
2022/07/13 04:10:30;;;;;;;0.10;0.10;;;;;;;21.85;52.82;101649.09;5115865;28;20065;-37
2022/07/13 04:12:58;;;;;;;0.10;0.10;;;;;;;21.84;52.96;101653.81;5123065;28;20104;-37
2022/07/13 04:15:31;;;;;;;0.10;0.10;;;;;;;21.85;52.79;101654.63;5114869;28;20051;-38
2022/07/13 04:17:56;;;;;;;0.15;0.15;;;;;;;21.82;52.85;101652.44;5114646;28;20048;-39
2022/07/13 04:20:22;;;;;;;0.10;0.10;;;;;;;21.83;52.92;101652.16;5118781;28;20048;-38
2022/07/13 04:22:48;;;;;;;0.20;0.20;;;;;;;21.85;52.87;101657.41;5116978;28;20048;-38
2022/07/13 04:25:13;;;;;;;0.10;0.10;;;;;;;21.85;52.82;101647.19;5115578;28;20374;-38
2022/07/13 04:27:39;;;;;;;0.10;0.10;;;;;;;21.84;52.86;101652.97;5117530;28;20048;-37
2022/07/13 04:30:05;;;;;;;0.10;0.10;;;;;;;21.85;52.90;101638.84;5115188;28;20048;-38
2022/07/13 04:32:31;;;;;;;0.10;0.10;;;;;;;21.86;52.81;101643.28;5101798;28;20079;-39
2022/07/13 04:34:56;;;;;;;0.10;0.10;;;;;;;21.85;52.84;101649.09;5118803;28;20057;-38
2022/07/13 04:37:22;;;;;;;0.10;0.10;;;;;;;21.84;52.83;101642.72;5120879;28;20051;-37
2022/07/13 04:39:48;;;;;;;0.10;0.10;;;;;;;21.85;52.83;101643.53;5100529;28;20114;-37
2022/07/13 04:42:13;;;;;;;0.15;0.15;;;;;;;21.85;53.00;101640.78;5120060;27;20039;-38
2022/07/13 04:44:39;;;;;;;0.10;0.10;;;;;;;21.84;52.92;101647.44;5119367;28;20139;-38
2022/07/13 04:47:04;;;;;;;0.10;0.10;;;;;;;21.84;52.84;101648.25;5121393;28;20040;-38
2022/07/13 04:49:30;;;;;;;0.10;0.10;;;;;;;21.84;52.91;101644.66;5100792;28;20382;-37
2022/07/13 04:51:56;;;;;;;0.10;0.10;;;;;;;21.85;52.79;101646.31;5116359;28;20051;-37
2022/07/13 04:54:21;;;;;;;0.20;0.20;;;;;;;21.86;52.83;101646.06;5115243;28;20043;-36
2022/07/13 04:56:48;;;;;;;0.10;0.10;;;;;;;21.85;52.89;101640.78;5109839;28;20040;-37
2022/07/13 04:59:14;;;;;;;0.10;0.10;;;;;;;21.84;52.82;101631.63;5117677;28;20087;-37
2022/07/13 05:01:39;;;;;;;0.10;0.10;;;;;;;21.85;52.92;101632.44;5121917;28;20072;-37
2022/07/13 05:04:05;;;;;;;0.10;0.10;;;;;;;21.84;52.84;101628.84;5118744;28;20075;-38
2022/07/13 05:06:31;;;;;;;0.10;0.10;;;;;;;21.86;52.90;101634.97;5111857;28;20492;-39
2022/07/13 05:08:57;;;;;;;0.10;0.10;;;;;;;21.85;52.84;101636.09;5093937;28;20075;-37
2022/07/13 05:11:24;;;;;;;0.10;0.10;;;;;;;21.86;52.81;101623.88;5114474;28;20477;-37
2022/07/13 05:13:50;;;;;;;0.10;0.10;;;;;;;21.87;52.92;101635.78;5112592;28;20767;-37
2022/07/13 05:16:16;;;;;;;0.10;0.10;;;;;;;21.85;52.77;101632.44;5113966;28;20390;-37
2022/07/13 05:18:42;;;;;;;0.10;0.10;;;;;;;21.85;52.85;101633.31;5118503;28;20485;-37
2022/07/13 05:21:08;;;;;;;0.10;0.10;;;;;;;21.87;52.76;101633.03;5119518;28;20035;-37
2022/07/13 05:23:34;;;;;;;0.10;0.10;;;;;;;21.85;52.97;101622.22;5120085;28;20047;-38
2022/07/13 05:26:00;;;;;;;0.10;0.10;;;;;;;21.84;52.82;101625.25;5116322;28;20462;-37
2022/07/13 05:28:26;;;;;;;0.10;0.10;;;;;;;21.84;52.86;101628.84;5085419;28;20057;-37
2022/07/13 05:30:52;;;;;;;0.10;0.10;;;;;;;21.86;52.90;101625.81;5116261;28;20390;-37
2022/07/13 05:33:19;;;;;;;0.10;0.10;;;;;;;21.85;52.98;101632.44;5113720;28;20047;-39
2022/07/13 05:35:45;;;;;;;0.10;0.10;;;;;;;21.85;52.88;101633.31;5121115;28;20515;-36
2022/07/13 05:38:10;;;;;;;0.10;0.10;;;;;;;21.85;52.87;101638.00;5115728;28;20053;-39
2022/07/13 05:40:36;;;;;;;0.10;0.10;;;;;;;21.87;52.73;101641.34;5113641;28;20048;-38
2022/07/13 05:43:02;;;;;;;0.10;0.10;;;;;;;21.85;52.76;101632.44;5114579;27;20040;-38
2022/07/13 05:45:27;;;;;;;0.10;0.10;;;;;;;21.86;52.87;101629.41;5116208;28;20053;-38
2022/07/13 05:47:53;;;;;;;0.10;0.10;;;;;;;21.87;52.91;101631.06;5114053;28;20671;-38
2022/07/13 05:50:18;;;;;;;0.10;0.10;;;;;;;21.85;52.92;101632.44;5113270;28;20040;-37
2022/07/13 05:52:44;;;;;;;0.10;0.10;;;;;;;21.85;52.90;101638.84;5119669;28;20458;-39
2022/07/13 05:55:11;;;;;;;0.10;0.10;;;;;;;21.84;52.94;101636.34;5082093;28;20125;-38
2022/07/13 05:57:37;;;;;;;0.10;0.10;;;;;;;21.86;52.93;101640.50;5110006;28;20067;-37
2022/07/13 06:00:05;;;;;;;0.10;0.10;;;;;;;21.85;52.84;101636.09;5096151;28;20608;-37
2022/07/13 06:02:31;;;;;;;;;;;;;;;21.86;52.75;101634.97;5116904;28;20044;-37
2022/07/13 06:04:56;;;;;;;0.10;0.10;;;;;;;21.85;52.90;101629.69;5116276;28;19969;-38
2022/07/13 06:07:22;;;;;;;0.10;0.10;;;;;;;21.84;52.81;101636.34;5119555;28;20039;-37
2022/07/13 06:09:47;;;;;;;0.10;0.10;;;;;;;21.84;52.89;101631.63;5115517;28;20050;-38
2022/07/13 06:12:13;;;;;;;0.10;0.10;;;;;;;21.85;52.98;101624.13;5115987;28;20077;-36
2022/07/13 06:14:39;;;;;;;0.10;0.10;;;;;;;21.87;52.85;101627.47;5113894;28;20489;-36
2022/07/13 06:17:05;;;;;;;0.10;0.10;;;;;;;21.85;52.91;101615.81;5115948;28;20055;-37
2022/07/13 06:19:30;;;;;;;0.10;0.10;;;;;;;21.85;52.81;101613.91;5114903;28;20073;-39
2022/07/13 06:21:56;;;;;;;0.10;0.10;;;;;;;21.86;52.88;101615.56;5115638;28;20044;-37
2022/07/13 06:24:22;;;;;;;0.10;0.10;;;;;;;21.86;52.74;101615.56;5118175;28;20133;-38
2022/07/13 06:26:47;;;;;;;0.10;0.10;;;;;;;21.87;52.87;101621.94;5113257;28;20055;-38
2022/07/13 06:29:13;;;;;;;0.10;0.10;;;;;;;21.85;52.87;101626.91;5118919;28;20036;-38
2022/07/13 06:31:38;;;;;;;0.10;0.10;;;;;;;21.85;52.86;101624.13;5111591;28;20120;-38
2022/07/13 06:34:04;;;;;;;0.10;0.10;;;;;;;21.86;52.82;101626.66;5116564;28;20546;-36
2022/07/13 06:36:30;;;;;;;0.10;0.10;;;;;;;21.86;52.91;101636.91;5116264;28;20047;-37
2022/07/13 06:38:56;;;;;;;0.10;0.10;;;;;;;21.84;52.84;101626.06;5119787;28;20044;-39
2022/07/13 06:41:21;;;;;;;0.10;0.10;;;;;;;21.86;52.90;101626.66;5113454;28;20068;-36
2022/07/13 06:43:47;;;;;;;0.10;0.10;;;;;;;21.86;52.81;101625.81;5112313;28;20108;-38
2022/07/13 06:46:13;;;;;;;0.10;0.10;;;;;;;21.84;52.99;101628.03;5111409;28;20062;-40
2022/07/13 06:48:39;;;;;;;0.10;0.10;;;;;;;21.85;52.91;101626.91;5120846;28;20091;-37
2022/07/13 06:51:04;;;;;;;0.10;0.10;;;;;;;21.84;52.87;101623.31;5117778;28;20055;-36
2022/07/13 06:53:30;;;;;;;0.10;0.10;;;;;;;21.86;52.85;101626.66;5115046;28;20096;-39
2022/07/13 06:55:56;;;;;;;0.10;0.10;;;;;;;21.86;52.81;101618.31;5114157;28;20070;-35
2022/07/13 06:58:21;;;;;;;0.10;0.10;;;;;;;21.85;52.84;101616.69;5121972;28;20046;-37
2022/07/13 07:00:47;;;;;;;0.10;0.10;;;;;;;21.85;52.79;101624.13;5116348;28;20043;-36
2022/07/13 07:03:13;;;;;;;0.10;0.10;;;;;;;21.85;52.78;101619.44;5114874;28;20458;-37
2022/07/13 07:05:39;;;;;;;0.10;0.10;;;;;;;21.84;52.82;101612.22;5116990;28;20050;-39
2022/07/13 07:08:05;;;;;;;0.10;0.10;;;;;;;21.86;52.83;101620.28;5095902;28;20097;-38
2022/07/13 07:10:31;;;;;;;0.10;0.10;;;;;;;21.87;52.91;101624.69;5099539;28;20558;-37
2022/07/13 07:13:05;;;;;;;0.10;0.10;;;;;;;21.86;52.88;101614.72;5118995;28;20118;-37
2022/07/13 07:15:30;;;;;;;0.10;0.10;;;;;;;21.85;52.82;101619.44;5119447;28;20572;-38
2022/07/13 07:17:56;;;;;;;0.10;0.10;;;;;;;21.85;52.57;101615.81;5119317;28;20497;-36
2022/07/13 07:20:22;;;;;;;0.10;0.10;;;;;;;21.85;52.95;101618.59;5118069;28;20327;-39
2022/07/13 07:22:47;;;;;;;0.10;0.10;;;;;;;21.85;52.86;101619.44;5121486;28;20478;-37
2022/07/13 07:25:14;;;;;;;0.10;0.10;;;;;;;21.85;52.72;101615.81;5121799;28;20405;-37
2022/07/13 07:27:40;;;;;;;0.10;0.10;;;;;;;21.86;52.82;101618.31;5122467;28;20051;-37
2022/07/13 07:30:07;;;;;;;0.10;0.10;;;;;;;21.85;52.88;101608.34;5114935;28;20072;-37
2022/07/13 07:32:32;;;;;;;0.10;0.10;;;;;;;21.86;52.91;101610.00;5118432;28;20052;-37
2022/07/13 07:34:58;;;;;;;0.10;0.10;;;;;;;21.84;52.85;101615.00;5099614;28;20162;-35
2022/07/13 07:37:24;;;;;;;0.10;0.10;;;;;;;21.86;52.92;101606.41;5117375;28;20432;-38
2022/07/13 07:39:51;;;;;;;0.10;0.10;;;;;;;21.85;52.87;101610.28;5100367;28;20070;-38
2022/07/13 07:42:17;;;;;;;0.10;0.10;;;;;;;21.84;52.91;101611.38;5100632;28;20085;-39
2022/07/13 07:44:42;;;;;;;0.17;0.17;;;;;;;21.84;52.90;101612.22;5117329;28;20040;-38
2022/07/13 07:47:08;;;;;;;0.10;0.10;;;;;;;21.85;52.93;101611.13;5116594;28;20044;-37
2022/07/13 07:49:35;;;;;;;0.10;0.10;;;;;;;21.85;52.85;101615.81;5119363;28;20138;-37
2022/07/13 07:52:06;;;;;;;0.10;0.10;;;;;;;21.84;52.86;101612.22;5117017;28;20089;-38
2022/07/13 07:54:52;;;;;;;0.10;0.10;;;;;;;21.84;52.91;101601.13;5101042;28;20390;-37
2022/07/13 07:57:22;;;;;;;0.10;0.10;;;;;;;21.85;52.90;101604.72;5122203;28;20043;-38
2022/07/13 07:59:47;;;;;;;0.10;0.10;;;;;;;21.85;52.75;101605.59;5119098;28;20042;-37
2022/07/13 08:02:14;;;;;;;0.10;0.10;;;;;;;21.85;52.92;101599.19;5122050;28;20490;-39
2022/07/13 08:04:40;;;;;;;0.20;0.20;;;;;;;21.86;52.80;101604.47;5116731;28;20039;-38
2022/07/13 08:07:07;;;;;;;0.10;0.10;;;;;;;21.88;52.91;101601.41;5117135;28;20067;-38
2022/07/13 08:09:34;;;;;;;0.10;0.10;;;;;;;21.87;52.90;101600.56;5118517;28;20090;-37
2022/07/13 08:12:00;;;;;;;0.10;0.10;;;;;;;21.85;52.71;101600.03;5120077;28;20083;-39
2022/07/13 08:14:26;;;;;;;0.10;0.10;;;;;;;21.87;52.76;101599.75;5116467;28;20074;-37
2022/07/13 08:16:52;;;;;;;0.10;0.10;;;;;;;21.86;52.91;101601.69;5099899;28;20045;-37
2022/07/13 08:19:17;;;;;;;0.10;0.10;;;;;;;21.87;52.84;101610.84;5114029;27;20044;-38
2022/07/13 08:22:03;;;;;;;0.10;0.10;;;;;;;21.84;52.94;101592.81;5101026;28;20050;-38
2022/07/13 08:24:29;;;;;;;0.10;0.10;;;;;;;21.87;52.91;101600.56;5097193;28;20039;-37
2022/07/13 08:26:54;;;;;;;0.10;0.10;;;;;;;21.85;52.86;101596.41;5116656;28;20111;-37
2022/07/13 08:29:20;;;;;;;0.10;0.10;;;;;;;21.85;52.78;101594.50;5120910;28;20039;-36
2022/07/13 08:31:46;;;;;;;0.10;0.10;;;;;;;21.86;52.76;101589.78;5101564;28;20076;-36
2022/07/13 08:39:45;;;;;;;0.10;0.10;;;;;;;21.85;52.82;101588.09;5105932;28;20438;-37
2022/07/13 08:42:13;;;;;;;0.10;0.10;;;;;;;21.85;52.92;101600.03;5117257;28;20051;-35
2022/07/13 08:44:38;;;;;;;0.10;0.10;;;;;;;21.85;52.91;101588.94;5116504;28;20075;-39
2022/07/13 08:47:05;;;;;;;0.10;0.10;;;;;;;21.86;52.91;101596.13;5113134;28;20062;-39
2022/07/13 08:49:31;;;;;;;0.10;0.10;;;;;;;21.85;52.90;101597.25;5115027;28;20040;-38
2022/07/13 08:51:58;;;;;;;0.10;0.10;;;;;;;21.85;52.89;101593.63;5115714;28;20058;-38
2022/07/13 08:54:23;;;;;;;0.10;0.10;;;;;;;21.86;52.88;101593.38;5117031;28;20124;-38
2022/07/13 08:56:49;;;;;;;0.10;0.10;;;;;;;21.87;52.88;101591.44;5113863;28;20047;-38
2022/07/13 08:59:15;;;;;;;0.20;0.20;;;;;;;21.88;52.83;101593.06;5119967;28;20405;-39
2022/07/13 09:01:41;;;;;;;0.10;0.10;;;;;;;21.85;52.91;101588.94;5119770;28;20055;-36
2022/07/13 09:04:12;;;;;;;0.10;0.10;;;;;;;21.87;52.92;101591.44;5123714;28;20440;-38
2022/07/13 09:09:31;;;;;;;0.10;0.10;;;;;;;21.86;52.84;101592.53;5175277;27;20113;-37
2022/07/13 09:12:20;;;;;;;0.10;0.10;;;;;;;21.85;52.96;101583.41;5143090;27;20481;-38
2022/07/13 09:15:06;;;;;;;0.10;0.10;;;;;;;21.86;52.91;101587.81;5153961;27;20453;-38
2022/07/13 09:17:43;;;;;;;0.10;0.10;;;;;;;21.84;52.92;101595.56;5133622;27;20093;-38
2022/07/13 09:20:15;;;;;;;0.10;0.10;;;;;;;21.86;52.82;101598.09;5159657;27;20042;-38
2022/07/13 09:22:57;;;;;;;0.10;0.10;;;;;;;21.85;52.85;101591.72;5158475;27;20038;-39
2022/07/13 09:25:25;;;;;;;0.10;0.10;;;;;;;21.86;52.80;101590.59;5155663;27;20500;-37
2022/07/13 09:27:52;;;;;;;0.10;0.10;;;;;;;21.87;52.79;101583.09;5152407;27;20380;-40
2022/07/13 09:30:23;;;;;;;0.10;0.10;;;;;;;21.85;52.76;101588.94;5140706;27;20556;-38
2022/07/13 09:32:51;;;;;;;0.10;0.10;;;;;;;21.86;52.88;101587.81;5137846;27;20038;-38
2022/07/13 09:35:17;;;;;;;0.10;0.10;;;;;;;21.85;52.85;101594.50;5128368;27;20088;-38
2022/07/13 09:37:43;;;;;;;0.10;0.10;;;;;;;21.86;52.48;101593.38;5160565;27;20043;-38
2022/07/13 09:40:11;;;;;;;0.10;0.10;;;;;;;21.84;52.93;101590.03;5159898;27;20476;-38
2022/07/13 09:42:39;;;;;;;0.10;0.10;;;;;;;21.87;52.84;101594.19;5113576;27;20050;-38
2022/07/13 09:47:54;;;;;;;0.10;0.10;;;;;;;21.86;52.78;101601.69;5114981;27;20070;-38
2022/07/13 09:50:22;;;;;;;0.13;0.13;;;;;;;21.87;52.80;101602.50;5146080;27;20097;-38
2022/07/13 09:52:50;;;;;;;0.10;0.10;;;;;;;21.87;52.91;101596.97;5143628;27;20075;-38
2022/07/13 09:55:19;;;;;;;0.20;0.20;;;;;;;21.85;52.85;101599.19;5124798;27;20100;-38
2022/07/13 09:57:47;;;;;;;0.10;0.10;;;;;;;21.86;52.92;101596.13;5123685;27;20137;-38
2022/07/13 10:00:26;;;;;;;0.10;0.10;;;;;;;21.86;52.91;101598.91;5140206;27;20042;-39
2022/07/13 10:02:52;;;;;;;0.10;0.10;;;;;;;21.86;52.82;101604.47;5146013;27;20178;-38
2022/07/13 10:05:19;;;;;;;0.10;0.10;;;;;;;21.86;52.92;101607.22;5146263;27;20500;-38
2022/07/13 10:07:47;;;;;;;0.10;0.10;;;;;;;21.87;52.83;101616.38;5123742;27;20039;-38
2022/07/13 10:10:14;;;;;;;0.10;0.10;;;;;;;21.85;52.88;101611.13;5142664;27;20046;-38
2022/07/13 10:12:40;;;;;;;0.10;0.10;;;;;;;21.87;52.93;101605.28;5124822;27;20098;-39
2022/07/13 10:15:07;;;;;;;0.20;0.20;;;;;;;21.87;52.90;101602.50;5145893;27;20074;-38
2022/07/13 10:17:33;;;;;;;0.10;0.10;;;;;;;21.87;52.76;101613.59;5124727;27;20504;-38
2022/07/13 10:20:03;;;;;;;0.10;0.10;;;;;;;21.85;52.85;101599.19;5106370;28;20071;-38
2022/07/13 10:22:32;;;;;;;0.10;0.10;;;;;;;21.87;52.82;101610.84;5114141;28;20071;-38
2022/07/13 10:24:59;;;;;;;0.10;0.10;;;;;;;21.86;52.80;101612.78;5131731;27;20082;-39
2022/07/13 10:27:27;;;;;;;0.13;0.13;;;;;;;21.85;52.77;101608.34;5131418;27;20035;-39
2022/07/13 10:29:58;;;;;;;0.10;0.10;;;;;;;21.87;52.96;101619.16;5111868;28;20047;-38
2022/07/13 10:32:26;;;;;;;0.10;0.10;;;;;;;21.87;52.80;101622.75;5113069;28;20520;-38
2022/07/13 10:40:40;;;;;;;0.10;0.10;;;;;;;21.85;52.90;101611.13;5166525;27;20448;-39
2022/07/13 10:45:48;;;;;;;0.20;0.20;;;;;;;21.85;52.84;101611.13;5166803;27;20452;-39
2022/07/13 10:48:22;;;;;;;0.10;0.10;;;;;;;21.85;52.94;101613.03;5125798;27;20039;-38
2022/07/13 10:50:52;;;;;;;0.10;0.10;;;;;;;21.84;53.04;101608.63;5147825;27;20042;-39
2022/07/13 10:53:19;;;;;;;0.10;0.10;;;;;;;21.86;52.84;101614.72;5146390;27;20076;-38
2022/07/13 10:55:46;;;;;;;0.10;0.10;;;;;;;21.86;52.96;101610.00;5145856;27;20133;-38
2022/07/13 10:58:41;;;;;;;0.10;0.10;;;;;;;21.86;52.93;101598.91;5145302;27;20046;-39
2022/07/13 11:01:36;;;;;;;0.17;0.17;;;;;;;21.86;52.89;101609.19;5128821;27;20070;-37
2022/07/13 11:04:03;;;;;;;0.10;0.10;;;;;;;21.85;52.85;101601.94;5132699;27;20053;-37
2022/07/13 11:06:29;;;;;;;0.10;0.10;;;;;;;21.87;52.81;101610.84;5126585;27;20447;-38
2022/07/13 11:09:18;;;;;;;0.10;0.10;;;;;;;21.84;52.82;101609.44;5129356;27;20492;-39
2022/07/13 11:11:49;;;;;;;0.10;0.10;;;;;;;21.86;52.72;101601.69;5111983;27;20118;-37
2022/07/13 11:17:14;;;;;;;0.10;0.10;;;;;;;21.86;52.97;101610.00;5164603;27;20529;-37
2022/07/13 11:19:58;;;;;;;0.10;0.10;;;;;;;21.86;53.00;101601.69;5163800;27;20091;-38
2022/07/13 11:25:13;;;;;;;0.10;0.10;;;;;;;21.86;52.92;101604.47;5147771;27;20058;-38
2022/07/13 11:25:28;;;;;;;0.10;0.10;;;;;;;21.86;52.87;101598.91;5135643;27;20042;-39
2022/07/13 11:28:03;;;;;;;0.20;0.20;;;;;;;21.86;53.03;101596.13;5166987;27;20474;-37
2022/07/13 11:30:29;;;;;;;0.10;0.10;;;;;;;21.86;52.91;101593.38;5145709;27;20084;-37
2022/07/13 11:32:56;;;;;;;0.10;0.10;;;;;;;21.86;52.95;101596.13;5165619;27;20073;-38
2022/07/13 11:35:21;;;;;;;0.10;0.10;;;;;;;21.86;52.90;101590.59;5145648;27;20062;-37
2022/07/13 11:37:47;;;;;;;0.10;0.10;;;;;;;21.87;52.87;101591.44;5147609;27;20053;-37
2022/07/13 11:40:30;;;;;;;0.10;0.10;;;;;;;21.85;52.75;101586.16;5163767;27;20077;-37
2022/07/13 11:43:00;;;;;;;0.10;0.10;;;;;;;21.87;52.88;101586.69;5151615;27;20200;-36
2022/07/13 11:45:33;;;;;;;0.10;0.10;;;;;;;21.86;52.94;101584.22;5149503;27;20133;-37
2022/07/13 11:48:00;;;;;;;0.10;0.10;;;;;;;21.86;52.90;101579.50;5151374;27;20043;-38